sensor_id;sensor_type;location;lat;lon;timestamp;pressure;altitude;pressure_sealevel;temperature;humidity
58761;BME280;44529;47.464;19.014;2023-02-07T00:02:50;102507.06;;;-5.27;77.89
58761;BME280;44529;47.464;19.014;2023-02-07T00:05:53;102503.88;;;-5.49;78.56
58761;BME280;44529;47.464;19.014;2023-02-07T00:08:55;102521.81;;;-5.52;79.06
58761;BME280;44529;47.464;19.014;2023-02-07T00:11:59;102527.16;;;-5.44;78.75
58761;BME280;44529;47.464;19.014;2023-02-07T00:15:02;102524.91;;;-5.39;77.92
58761;BME280;44529;47.464;19.014;2023-02-07T00:18:05;102531.22;;;-5.50;78.37
58761;BME280;44529;47.464;19.014;2023-02-07T00:21:15;102535.72;;;-5.42;78.45
58761;BME280;44529;47.464;19.014;2023-02-07T00:24:18;102550.34;;;-5.48;78.94
58761;BME280;44529;47.464;19.014;2023-02-07T00:27:20;102544.63;;;-5.43;78.51
58761;BME280;44529;47.464;19.014;2023-02-07T00:30:23;102543.03;;;-5.36;78.52
58761;BME280;44529;47.464;19.014;2023-02-07T00:33:25;102541.78;;;-5.32;78.88
58761;BME280;44529;47.464;19.014;2023-02-07T00:36:31;102538.09;;;-5.39;78.29
58761;BME280;44529;47.464;19.014;2023-02-07T00:39:33;102533.78;;;-5.40;78.14
58761;BME280;44529;47.464;19.014;2023-02-07T00:42:36;102534.16;;;-5.53;78.81
58761;BME280;44529;47.464;19.014;2023-02-07T00:45:38;102543.75;;;-5.61;79.65
58761;BME280;44529;47.464;19.014;2023-02-07T00:48:41;102554.91;;;-5.67;79.73
58761;BME280;44529;47.464;19.014;2023-02-07T00:51:44;102545.28;;;-5.59;79.04
58761;BME280;44529;47.464;19.014;2023-02-07T00:54:47;102549.75;;;-5.59;78.81
58761;BME280;44529;47.464;19.014;2023-02-07T00:57:49;102541.56;;;-5.84;80.06
58761;BME280;44529;47.464;19.014;2023-02-07T01:00:52;102539.16;;;-5.77;79.72
58761;BME280;44529;47.464;19.014;2023-02-07T01:03:55;102537.75;;;-5.72;79.39
58761;BME280;44529;47.464;19.014;2023-02-07T01:06:57;102535.63;;;-5.68;79.25
58761;BME280;44529;47.464;19.014;2023-02-07T01:09:59;102539.09;;;-5.67;79.16
58761;BME280;44529;47.464;19.014;2023-02-07T01:13:02;102534.75;;;-5.86;79.19
58761;BME280;44529;47.464;19.014;2023-02-07T01:16:05;102545.09;;;-5.75;78.80
58761;BME280;44529;47.464;19.014;2023-02-07T01:19:09;102540.66;;;-5.75;79.00
58761;BME280;44529;47.464;19.014;2023-02-07T01:22:12;102539.34;;;-5.88;79.66
58761;BME280;44529;47.464;19.014;2023-02-07T01:25:15;102533.34;;;-5.81;79.97
58761;BME280;44529;47.464;19.014;2023-02-07T01:28:17;102526.06;;;-5.69;79.37
58761;BME280;44529;47.464;19.014;2023-02-07T01:31:20;102515.75;;;-5.62;78.92
58761;BME280;44529;47.464;19.014;2023-02-07T01:34:23;102510.41;;;-5.70;78.48
58761;BME280;44529;47.464;19.014;2023-02-07T01:37:26;102514.91;;;-5.81;79.25
58761;BME280;44529;47.464;19.014;2023-02-07T01:40:29;102508.66;;;-5.80;79.43
58761;BME280;44529;47.464;19.014;2023-02-07T01:43:33;102510.03;;;-5.76;79.52
58761;BME280;44529;47.464;19.014;2023-02-07T01:46:35;102501.53;;;-5.69;78.80
58761;BME280;44529;47.464;19.014;2023-02-07T01:49:38;102500.09;;;-5.64;79.01
58761;BME280;44529;47.464;19.014;2023-02-07T01:52:41;102492.72;;;-5.60;78.69
58761;BME280;44529;47.464;19.014;2023-02-07T01:55:47;102489.72;;;-5.48;78.41
58761;BME280;44529;47.464;19.014;2023-02-07T01:58:51;102490.19;;;-5.52;78.28
58761;BME280;44529;47.464;19.014;2023-02-07T02:01:54;102498.16;;;-5.62;77.54
58761;BME280;44529;47.464;19.014;2023-02-07T02:04:58;102494.13;;;-5.84;78.26
58761;BME280;44529;47.464;19.014;2023-02-07T02:08:00;102488.28;;;-5.78;78.49
58761;BME280;44529;47.464;19.014;2023-02-07T02:34:45;102481.94;;;-5.67;78.33
58761;BME280;44529;47.464;19.014;2023-02-07T02:41:13;102474.19;;;-5.68;78.62
58761;BME280;44529;47.464;19.014;2023-02-07T02:44:29;102481.44;;;-5.53;78.18
58761;BME280;44529;47.464;19.014;2023-02-07T02:47:35;102479.62;;;-5.52;78.24
58761;BME280;44529;47.464;19.014;2023-02-07T02:50:38;102480.31;;;-5.50;77.84
58761;BME280;44529;47.464;19.014;2023-02-07T02:53:50;102485.59;;;-5.50;77.65
58761;BME280;44529;47.464;19.014;2023-02-07T02:57:27;102471.13;;;-5.46;77.57
58761;BME280;44529;47.464;19.014;2023-02-07T03:00:54;102470.09;;;-5.53;77.87
58761;BME280;44529;47.464;19.014;2023-02-07T03:10:42;102469.09;;;-5.52;77.39
58761;BME280;44529;47.464;19.014;2023-02-07T03:17:27;102476.31;;;-5.72;78.46
58761;BME280;44529;47.464;19.014;2023-02-07T03:20:38;102474.78;;;-5.75;78.51
58761;BME280;44529;47.464;19.014;2023-02-07T03:23:45;102481.03;;;-5.76;78.31
58761;BME280;44529;47.464;19.014;2023-02-07T03:26:52;102478.13;;;-5.73;78.24
58761;BME280;44529;47.464;19.014;2023-02-07T03:29:58;102478.78;;;-5.70;77.94
58761;BME280;44529;47.464;19.014;2023-02-07T03:33:04;102483.84;;;-5.77;77.83
58761;BME280;44529;47.464;19.014;2023-02-07T03:36:18;102489.97;;;-5.86;77.72
58761;BME280;44529;47.464;19.014;2023-02-07T03:39:23;102474.16;;;-5.86;78.40
58761;BME280;44529;47.464;19.014;2023-02-07T03:42:37;102481.56;;;-5.90;78.11
58761;BME280;44529;47.464;19.014;2023-02-07T03:45:40;102478.59;;;-5.87;77.59
58761;BME280;44529;47.464;19.014;2023-02-07T03:48:42;102471.56;;;-6.04;78.11
58761;BME280;44529;47.464;19.014;2023-02-07T03:51:46;102466.38;;;-5.96;77.88
58761;BME280;44529;47.464;19.014;2023-02-07T03:54:49;102470.00;;;-5.97;78.15
58761;BME280;44529;47.464;19.014;2023-02-07T03:57:51;102475.06;;;-6.13;78.74
58761;BME280;44529;47.464;19.014;2023-02-07T04:00:53;102476.63;;;-6.20;80.05
58761;BME280;44529;47.464;19.014;2023-02-07T04:03:56;102477.44;;;-6.20;80.46
58761;BME280;44529;47.464;19.014;2023-02-07T04:06:58;102469.50;;;-6.10;79.43
58761;BME280;44529;47.464;19.014;2023-02-07T04:10:01;102460.09;;;-6.13;79.50
58761;BME280;44529;47.464;19.014;2023-02-07T04:13:04;102461.59;;;-6.10;79.92
58761;BME280;44529;47.464;19.014;2023-02-07T04:16:06;102458.28;;;-6.12;79.25
58761;BME280;44529;47.464;19.014;2023-02-07T04:19:09;102460.22;;;-6.14;79.78
58761;BME280;44529;47.464;19.014;2023-02-07T04:22:11;102460.91;;;-6.12;80.38
58761;BME280;44529;47.464;19.014;2023-02-07T04:25:13;102468.38;;;-6.08;79.91
58761;BME280;44529;47.464;19.014;2023-02-07T04:28:16;102469.78;;;-6.13;79.20
58761;BME280;44529;47.464;19.014;2023-02-07T04:31:18;102467.41;;;-6.34;80.56
58761;BME280;44529;47.464;19.014;2023-02-07T04:34:20;102460.06;;;-6.31;80.38
58761;BME280;44529;47.464;19.014;2023-02-07T04:37:23;102443.91;;;-6.18;79.75
58761;BME280;44529;47.464;19.014;2023-02-07T04:40:25;102440.97;;;-6.15;79.18
58761;BME280;44529;47.464;19.014;2023-02-07T04:43:28;102445.41;;;-6.15;79.54
58761;BME280;44529;47.464;19.014;2023-02-07T04:46:30;102456.34;;;-6.10;79.21
58761;BME280;44529;47.464;19.014;2023-02-07T04:49:32;102467.72;;;-6.10;79.26
58761;BME280;44529;47.464;19.014;2023-02-07T04:52:36;102476.03;;;-6.14;79.26
58761;BME280;44529;47.464;19.014;2023-02-07T04:55:38;102474.66;;;-6.18;79.43
58761;BME280;44529;47.464;19.014;2023-02-07T04:58:41;102474.53;;;-6.17;79.72
58761;BME280;44529;47.464;19.014;2023-02-07T05:01:43;102478.81;;;-6.16;79.54
58761;BME280;44529;47.464;19.014;2023-02-07T05:04:46;102491.31;;;-6.18;79.88
58761;BME280;44529;47.464;19.014;2023-02-07T05:07:48;102493.47;;;-6.13;79.34
58761;BME280;44529;47.464;19.014;2023-02-07T05:10:53;102491.16;;;-6.16;80.06
58761;BME280;44529;47.464;19.014;2023-02-07T05:13:55;102498.50;;;-6.20;79.87
58761;BME280;44529;47.464;19.014;2023-02-07T05:16:58;102509.13;;;-6.12;79.68
58761;BME280;44529;47.464;19.014;2023-02-07T05:20:01;102509.00;;;-6.10;79.92
58761;BME280;44529;47.464;19.014;2023-02-07T05:23:03;102515.63;;;-6.06;79.89
58761;BME280;44529;47.464;19.014;2023-02-07T05:26:05;102521.34;;;-6.11;80.74
58761;BME280;44529;47.464;19.014;2023-02-07T05:29:08;102529.84;;;-5.99;79.97
58761;BME280;44529;47.464;19.014;2023-02-07T05:32:13;102529.44;;;-5.94;79.73
58761;BME280;44529;47.464;19.014;2023-02-07T05:35:40;102523.09;;;-6.02;80.01
58761;BME280;44529;47.464;19.014;2023-02-07T05:38:44;102530.56;;;-5.97;80.36
58761;BME280;44529;47.464;19.014;2023-02-07T05:41:46;102524.59;;;-5.99;79.99
58761;BME280;44529;47.464;19.014;2023-02-07T05:44:48;102525.22;;;-6.15;80.61
58761;BME280;44529;47.464;19.014;2023-02-07T05:47:51;102528.34;;;-6.02;79.94
58761;BME280;44529;47.464;19.014;2023-02-07T05:50:53;102530.91;;;-6.10;79.89
58761;BME280;44529;47.464;19.014;2023-02-07T05:53:55;102533.81;;;-6.13;80.33
58761;BME280;44529;47.464;19.014;2023-02-07T05:56:58;102528.84;;;-6.16;80.26
58761;BME280;44529;47.464;19.014;2023-02-07T06:00:00;102533.69;;;-6.11;79.77
58761;BME280;44529;47.464;19.014;2023-02-07T06:03:12;102534.63;;;-6.12;80.21
58761;BME280;44529;47.464;19.014;2023-02-07T06:06:15;102530.16;;;-6.02;79.65
58761;BME280;44529;47.464;19.014;2023-02-07T06:09:17;102525.88;;;-6.03;80.45
58761;BME280;44529;47.464;19.014;2023-02-07T06:12:20;102536.16;;;-6.10;80.59
58761;BME280;44529;47.464;19.014;2023-02-07T06:15:22;102531.72;;;-6.09;80.31
58761;BME280;44529;47.464;19.014;2023-02-07T06:18:24;102540.59;;;-6.10;79.95
58761;BME280;44529;47.464;19.014;2023-02-07T06:21:27;102534.78;;;-6.14;80.68
58761;BME280;44529;47.464;19.014;2023-02-07T06:24:47;102536.19;;;-6.19;80.70
58761;BME280;44529;47.464;19.014;2023-02-07T06:27:49;102533.12;;;-6.15;80.10
58761;BME280;44529;47.464;19.014;2023-02-07T06:30:52;102537.00;;;-6.09;80.17
58761;BME280;44529;47.464;19.014;2023-02-07T06:33:54;102532.81;;;-6.12;80.37
58761;BME280;44529;47.464;19.014;2023-02-07T06:36:57;102531.16;;;-6.13;80.17
58761;BME280;44529;47.464;19.014;2023-02-07T06:39:59;102526.88;;;-6.14;80.96
58761;BME280;44529;47.464;19.014;2023-02-07T06:43:02;102530.59;;;-6.07;80.00
58761;BME280;44529;47.464;19.014;2023-02-07T06:46:04;102532.56;;;-6.09;79.59
58761;BME280;44529;47.464;19.014;2023-02-07T06:49:07;102519.53;;;-6.10;79.93
58761;BME280;44529;47.464;19.014;2023-02-07T06:52:09;102513.12;;;-6.08;80.13
58761;BME280;44529;47.464;19.014;2023-02-07T06:55:12;102514.94;;;-6.08;80.19
58761;BME280;44529;47.464;19.014;2023-02-07T06:58:15;102515.78;;;-6.08;79.79
58761;BME280;44529;47.464;19.014;2023-02-07T07:01:17;102519.31;;;-5.99;79.89
58761;BME280;44529;47.464;19.014;2023-02-07T07:04:21;102513.38;;;-6.01;80.18
58761;BME280;44529;47.464;19.014;2023-02-07T07:07:23;102512.41;;;-6.00;80.38
58761;BME280;44529;47.464;19.014;2023-02-07T07:10:26;102504.22;;;-5.97;80.72
58761;BME280;44529;47.464;19.014;2023-02-07T07:13:29;102500.75;;;-5.97;81.17
58761;BME280;44529;47.464;19.014;2023-02-07T07:16:31;102502.84;;;-6.01;82.05
58761;BME280;44529;47.464;19.014;2023-02-07T07:19:34;102515.38;;;-5.85;81.21
58761;BME280;44529;47.464;19.014;2023-02-07T07:22:36;102510.19;;;-5.77;79.92
58761;BME280;44529;47.464;19.014;2023-02-07T07:25:39;102509.19;;;-5.76;79.84
58761;BME280;44529;47.464;19.014;2023-02-07T07:28:42;102509.81;;;-5.64;79.58
58761;BME280;44529;47.464;19.014;2023-02-07T07:31:47;102508.16;;;-5.65;79.74
58761;BME280;44529;47.464;19.014;2023-02-07T07:34:49;102498.97;;;-5.61;79.73
58761;BME280;44529;47.464;19.014;2023-02-07T07:37:52;102504.47;;;-5.55;79.54
58761;BME280;44529;47.464;19.014;2023-02-07T07:40:54;102515.94;;;-5.46;79.48
58761;BME280;44529;47.464;19.014;2023-02-07T07:43:57;102508.94;;;-5.37;79.49
58761;BME280;44529;47.464;19.014;2023-02-07T07:46:59;102512.41;;;-5.37;79.17
58761;BME280;44529;47.464;19.014;2023-02-07T07:50:02;102509.00;;;-5.29;79.03
58761;BME280;44529;47.464;19.014;2023-02-07T07:53:04;102507.63;;;-5.15;78.84
58761;BME280;44529;47.464;19.014;2023-02-07T07:56:06;102506.97;;;-5.18;78.66
58761;BME280;44529;47.464;19.014;2023-02-07T07:59:09;102508.84;;;-5.10;78.66
58761;BME280;44529;47.464;19.014;2023-02-07T08:02:24;102507.25;;;-5.03;78.42
58761;BME280;44529;47.464;19.014;2023-02-07T08:05:27;102506.19;;;-4.92;78.12
58761;BME280;44529;47.464;19.014;2023-02-07T08:08:29;102501.94;;;-4.85;78.60
58761;BME280;44529;47.464;19.014;2023-02-07T08:11:32;102505.94;;;-4.81;77.79
58761;BME280;44529;47.464;19.014;2023-02-07T08:14:34;102511.94;;;-4.71;77.46
58761;BME280;44529;47.464;19.014;2023-02-07T08:17:36;102499.09;;;-4.66;77.32
58761;BME280;44529;47.464;19.014;2023-02-07T08:20:38;102493.97;;;-4.41;76.88
58761;BME280;44529;47.464;19.014;2023-02-07T08:23:42;102496.03;;;-4.27;76.99
58761;BME280;44529;47.464;19.014;2023-02-07T08:26:44;102489.81;;;-4.18;77.03
58761;BME280;44529;47.464;19.014;2023-02-07T08:29:47;102498.41;;;-4.07;76.63
58761;BME280;44529;47.464;19.014;2023-02-07T08:32:50;102505.72;;;-4.01;77.13
58761;BME280;44529;47.464;19.014;2023-02-07T08:35:53;102501.44;;;-3.94;76.36
58761;BME280;44529;47.464;19.014;2023-02-07T08:38:55;102507.72;;;-3.87;76.22
58761;BME280;44529;47.464;19.014;2023-02-07T08:41:59;102516.19;;;-3.75;77.35
58761;BME280;44529;47.464;19.014;2023-02-07T08:45:01;102501.69;;;-3.63;76.03
58761;BME280;44529;47.464;19.014;2023-02-07T08:48:06;102508.84;;;-3.47;75.12
58761;BME280;44529;47.464;19.014;2023-02-07T08:51:09;102513.66;;;-3.35;73.92
58761;BME280;44529;47.464;19.014;2023-02-07T08:54:11;102519.44;;;-3.23;73.64
58761;BME280;44529;47.464;19.014;2023-02-07T08:57:14;102516.16;;;-3.09;72.92
58761;BME280;44529;47.464;19.014;2023-02-07T09:00:17;102516.81;;;-2.82;72.61
58761;BME280;44529;47.464;19.014;2023-02-07T09:03:20;102511.31;;;-2.56;69.89
58761;BME280;44529;47.464;19.014;2023-02-07T09:06:23;102513.91;;;-2.40;69.75
58761;BME280;44529;47.464;19.014;2023-02-07T09:09:26;102515.31;;;-2.05;68.72
58761;BME280;44529;47.464;19.014;2023-02-07T09:12:31;102514.66;;;-1.76;66.95
58761;BME280;44529;47.464;19.014;2023-02-07T09:15:33;102510.69;;;-1.49;65.69
58761;BME280;44529;47.464;19.014;2023-02-07T09:18:39;102515.72;;;-1.08;64.36
58761;BME280;44529;47.464;19.014;2023-02-07T09:21:41;102508.72;;;-0.86;61.27
58761;BME280;44529;47.464;19.014;2023-02-07T09:24:44;102504.44;;;-0.72;62.04
58761;BME280;44529;47.464;19.014;2023-02-07T09:27:46;102507.38;;;-0.52;61.26
58761;BME280;44529;47.464;19.014;2023-02-07T09:30:51;102511.00;;;-0.31;60.08
58761;BME280;44529;47.464;19.014;2023-02-07T09:33:54;102511.28;;;-0.25;60.49
58761;BME280;44529;47.464;19.014;2023-02-07T09:36:57;102513.94;;;-0.25;59.94
58761;BME280;44529;47.464;19.014;2023-02-07T09:40:01;102515.75;;;-0.26;59.45
58761;BME280;44529;47.464;19.014;2023-02-07T09:46:39;102507.41;;;-0.08;58.90
58761;BME280;44529;47.464;19.014;2023-02-07T09:49:58;102516.19;;;0.07;58.46
58761;BME280;44529;47.464;19.014;2023-02-07T09:53:14;102509.28;;;0.13;58.93
58761;BME280;44529;47.464;19.014;2023-02-07T09:56:20;102502.25;;;0.20;58.63
58761;BME280;44529;47.464;19.014;2023-02-07T09:59:32;102498.38;;;0.22;57.40
58761;BME280;44529;47.464;19.014;2023-02-07T10:06:08;102490.50;;;0.14;55.97
58761;BME280;44529;47.464;19.014;2023-02-07T10:09:24;102489.34;;;0.02;55.82
58761;BME280;44529;47.464;19.014;2023-02-07T10:32:43;102472.69;;;0.72;54.47
58761;BME280;44529;47.464;19.014;2023-02-07T10:35:48;102475.53;;;0.49;53.92
58761;BME280;44529;47.464;19.014;2023-02-07T10:39:32;102475.97;;;0.74;54.48
58761;BME280;44529;47.464;19.014;2023-02-07T10:42:28;102471.09;;;0.78;53.21
58761;BME280;44529;47.464;19.014;2023-02-07T10:45:34;102465.06;;;0.91;54.28
58761;BME280;44529;47.464;19.014;2023-02-07T10:48:38;102466.06;;;0.90;53.30
58761;BME280;44529;47.464;19.014;2023-02-07T10:51:41;102465.44;;;1.16;51.54
58761;BME280;44529;47.464;19.014;2023-02-07T10:54:50;102456.34;;;1.31;51.11
58761;BME280;44529;47.464;19.014;2023-02-07T10:57:55;102459.78;;;1.25;51.40
58761;BME280;44529;47.464;19.014;2023-02-07T11:01:20;102461.63;;;1.25;49.99
58761;BME280;44529;47.464;19.014;2023-02-07T11:04:35;102462.50;;;1.32;50.08
58761;BME280;44529;47.464;19.014;2023-02-07T11:07:38;102464.09;;;1.26;47.31
58761;BME280;44529;47.464;19.014;2023-02-07T11:10:54;102459.28;;;1.15;47.01
58761;BME280;44529;47.464;19.014;2023-02-07T11:14:04;102455.53;;;1.31;48.55
58761;BME280;44529;47.464;19.014;2023-02-07T11:17:19;102453.50;;;1.40;48.44
58761;BME280;44529;47.464;19.014;2023-02-07T11:20:38;102444.34;;;1.49;49.33
58761;BME280;44529;47.464;19.014;2023-02-07T11:23:43;102455.69;;;1.57;48.27
58761;BME280;44529;47.464;19.014;2023-02-07T11:27:15;102449.75;;;1.62;48.10
58761;BME280;44529;47.464;19.014;2023-02-07T11:30:19;102443.25;;;1.78;48.38
58761;BME280;44529;47.464;19.014;2023-02-07T11:33:31;102446.38;;;1.81;47.77
58761;BME280;44529;47.464;19.014;2023-02-07T11:36:37;102431.06;;;1.55;47.79
58761;BME280;44529;47.464;19.014;2023-02-07T11:39:42;102430.47;;;1.67;48.02
58761;BME280;44529;47.464;19.014;2023-02-07T11:42:56;102434.88;;;1.81;48.53
58761;BME280;44529;47.464;19.014;2023-02-07T11:46:02;102439.13;;;1.69;47.67
58761;BME280;44529;47.464;19.014;2023-02-07T11:49:24;102439.38;;;1.80;48.01
58761;BME280;44529;47.464;19.014;2023-02-07T11:52:30;102429.75;;;1.86;47.78
58761;BME280;44529;47.464;19.014;2023-02-07T11:55:38;102425.81;;;1.75;47.34
58761;BME280;44529;47.464;19.014;2023-02-07T11:58:42;102421.12;;;1.84;47.67
58761;BME280;44529;47.464;19.014;2023-02-07T12:01:54;102421.81;;;2.12;47.97
58761;BME280;44529;47.464;19.014;2023-02-07T12:05:11;102417.16;;;2.28;48.12
58761;BME280;44529;47.464;19.014;2023-02-07T12:08:22;102415.53;;;2.33;47.08
58761;BME280;44529;47.464;19.014;2023-02-07T12:11:33;102404.84;;;2.47;46.94
58761;BME280;44529;47.464;19.014;2023-02-07T12:14:42;102402.41;;;2.58;46.88
58761;BME280;44529;47.464;19.014;2023-02-07T12:18:08;102399.53;;;2.53;46.40
58761;BME280;44529;47.464;19.014;2023-02-07T12:21:22;102396.19;;;2.18;46.14
58761;BME280;44529;47.464;19.014;2023-02-07T12:24:36;102398.84;;;2.25;46.30
58761;BME280;44529;47.464;19.014;2023-02-07T12:27:43;102401.34;;;2.26;46.49
58761;BME280;44529;47.464;19.014;2023-02-07T12:30:50;102398.69;;;2.53;46.66
58761;BME280;44529;47.464;19.014;2023-02-07T12:34:18;102405.47;;;2.68;46.57
58761;BME280;44529;47.464;19.014;2023-02-07T12:37:58;102389.44;;;2.55;45.17
58761;BME280;44529;47.464;19.014;2023-02-07T12:44:41;102385.75;;;2.69;44.55
58761;BME280;44529;47.464;19.014;2023-02-07T12:48:09;102388.59;;;2.28;44.19
58761;BME280;44529;47.464;19.014;2023-02-07T12:54:52;102382.84;;;2.25;45.04
58761;BME280;44529;47.464;19.014;2023-02-07T13:01:19;102380.38;;;2.23;45.61
58761;BME280;44529;47.464;19.014;2023-02-07T13:11:52;102376.91;;;2.76;44.79
58761;BME280;44529;47.464;19.014;2023-02-07T13:15:35;102381.41;;;2.82;45.52
58761;BME280;44529;47.464;19.014;2023-02-07T13:18:56;102386.37;;;2.65;44.34
58761;BME280;44529;47.464;19.014;2023-02-07T13:22:13;102381.22;;;2.57;43.40
58761;BME280;44529;47.464;19.014;2023-02-07T13:25:23;102375.25;;;2.75;44.64
58761;BME280;44529;47.464;19.014;2023-02-07T13:28:49;102372.22;;;2.71;44.04
58761;BME280;44529;47.464;19.014;2023-02-07T13:31:57;102372.81;;;2.73;44.27
58761;BME280;44529;47.464;19.014;2023-02-07T13:35:05;102379.56;;;2.82;43.65
58761;BME280;44529;47.464;19.014;2023-02-07T13:41:53;102370.06;;;3.19;43.61
58761;BME280;44529;47.464;19.014;2023-02-07T13:45:44;102372.53;;;3.14;44.55
58761;BME280;44529;47.464;19.014;2023-02-07T14:07:31;102367.03;;;2.89;44.27
58761;BME280;44529;47.464;19.014;2023-02-07T14:10:51;102371.97;;;2.79;43.61
58761;BME280;44529;47.464;19.014;2023-02-07T14:30:55;102379.19;;;2.46;44.92
58761;BME280;44529;47.464;19.014;2023-02-07T14:34:11;102384.09;;;2.35;44.63
58761;BME280;44529;47.464;19.014;2023-02-07T14:37:20;102376.28;;;2.21;44.71
58761;BME280;44529;47.464;19.014;2023-02-07T14:43:53;102393.72;;;2.23;46.99
58761;BME280;44529;47.464;19.014;2023-02-07T14:47:20;102388.38;;;2.16;46.17
58761;BME280;44529;47.464;19.014;2023-02-07T14:50:27;102385.87;;;1.95;46.03
58761;BME280;44529;47.464;19.014;2023-02-07T14:53:40;102391.25;;;2.08;45.83
58761;BME280;44529;47.464;19.014;2023-02-07T14:58:07;102390.22;;;2.09;46.17
58761;BME280;44529;47.464;19.014;2023-02-07T15:00:44;102388.56;;;2.02;46.88
58761;BME280;44529;47.464;19.014;2023-02-07T15:04:04;102383.78;;;1.84;47.32
58761;BME280;44529;47.464;19.014;2023-02-07T15:07:11;102393.84;;;1.82;46.79
58761;BME280;44529;47.464;19.014;2023-02-07T15:10:19;102395.28;;;1.84;49.80
58761;BME280;44529;47.464;19.014;2023-02-07T15:13:43;102397.91;;;1.71;47.77
58761;BME280;44529;47.464;19.014;2023-02-07T15:16:46;102401.34;;;1.65;47.65
58761;BME280;44529;47.464;19.014;2023-02-07T15:19:49;102399.09;;;1.62;47.28
58761;BME280;44529;47.464;19.014;2023-02-07T15:22:59;102401.84;;;1.41;47.82
58761;BME280;44529;47.464;19.014;2023-02-07T15:26:05;102404.59;;;1.19;47.42
58761;BME280;44529;47.464;19.014;2023-02-07T15:29:24;102405.00;;;1.16;47.88
58761;BME280;44529;47.464;19.014;2023-02-07T15:32:32;102409.41;;;1.02;47.72
58761;BME280;44529;47.464;19.014;2023-02-07T15:35:37;102407.97;;;1.00;49.22
58761;BME280;44529;47.464;19.014;2023-02-07T15:38:42;102417.59;;;1.01;48.63
58761;BME280;44529;47.464;19.014;2023-02-07T15:41:46;102411.03;;;0.97;48.93
58761;BME280;44529;47.464;19.014;2023-02-07T15:44:55;102412.03;;;0.96;48.38
58761;BME280;44529;47.464;19.014;2023-02-07T15:48:02;102413.66;;;0.90;48.24
58761;BME280;44529;47.464;19.014;2023-02-07T15:51:04;102418.28;;;0.81;50.49
58761;BME280;44529;47.464;19.014;2023-02-07T15:54:14;102418.41;;;0.73;49.13
58761;BME280;44529;47.464;19.014;2023-02-07T15:57:26;102425.84;;;0.57;49.60
58761;BME280;44529;47.464;19.014;2023-02-07T16:00:37;102422.56;;;0.54;49.69
58761;BME280;44529;47.464;19.014;2023-02-07T16:03:44;102424.47;;;0.39;49.73
58761;BME280;44529;47.464;19.014;2023-02-07T16:07:03;102423.75;;;0.31;50.84
58761;BME280;44529;47.464;19.014;2023-02-07T16:13:27;102429.31;;;0.14;50.91
58761;BME280;44529;47.464;19.014;2023-02-07T16:16:47;102425.78;;;0.07;51.12
58761;BME280;44529;47.464;19.014;2023-02-07T16:19:50;102430.37;;;-0.02;51.33
58761;BME280;44529;47.464;19.014;2023-02-07T16:22:56;102431.09;;;-0.08;51.91
58761;BME280;44529;47.464;19.014;2023-02-07T16:26:03;102437.38;;;-0.15;52.98
58761;BME280;44529;47.464;19.014;2023-02-07T16:29:06;102436.47;;;-0.22;53.16
58761;BME280;44529;47.464;19.014;2023-02-07T16:32:11;102434.53;;;-0.29;53.01
58761;BME280;44529;47.464;19.014;2023-02-07T16:35:22;102435.66;;;-0.38;53.17
58761;BME280;44529;47.464;19.014;2023-02-07T16:38:28;102435.47;;;-0.36;53.40
58761;BME280;44529;47.464;19.014;2023-02-07T16:41:33;102432.34;;;-0.40;53.84
58761;BME280;44529;47.464;19.014;2023-02-07T16:44:37;102439.13;;;-0.52;55.26
58761;BME280;44529;47.464;19.014;2023-02-07T16:47:40;102437.03;;;-0.57;54.80
58761;BME280;44529;47.464;19.014;2023-02-07T16:50:43;102441.06;;;-0.61;55.48
58761;BME280;44529;47.464;19.014;2023-02-07T16:53:45;102450.50;;;-0.58;54.45
58761;BME280;44529;47.464;19.014;2023-02-07T16:56:51;102451.88;;;-0.62;55.10
58761;BME280;44529;47.464;19.014;2023-02-07T16:59:56;102442.81;;;-0.68;55.51
58761;BME280;44529;47.464;19.014;2023-02-07T17:02:59;102445.00;;;-0.71;55.36
58761;BME280;44529;47.464;19.014;2023-02-07T17:06:04;102447.28;;;-0.68;55.88
58761;BME280;44529;47.464;19.014;2023-02-07T17:09:21;102438.59;;;-0.77;56.80
58761;BME280;44529;47.464;19.014;2023-02-07T17:12:25;102426.50;;;-0.79;57.21
58761;BME280;44529;47.464;19.014;2023-02-07T17:15:28;102435.66;;;-0.82;58.25
58761;BME280;44529;47.464;19.014;2023-02-07T17:18:32;102437.75;;;-0.77;57.60
58761;BME280;44529;47.464;19.014;2023-02-07T17:21:34;102449.47;;;-0.72;57.57
58761;BME280;44529;47.464;19.014;2023-02-07T17:24:37;102443.19;;;-0.71;57.73
58761;BME280;44529;47.464;19.014;2023-02-07T17:27:40;102450.03;;;-0.76;58.08
58761;BME280;44529;47.464;19.014;2023-02-07T17:30:44;102444.75;;;-0.76;59.25
58761;BME280;44529;47.464;19.014;2023-02-07T17:33:46;102432.91;;;-0.74;58.61
58761;BME280;44529;47.464;19.014;2023-02-07T17:36:50;102444.84;;;-0.70;58.46
58761;BME280;44529;47.464;19.014;2023-02-07T17:39:53;102449.84;;;-0.75;58.81
58761;BME280;44529;47.464;19.014;2023-02-07T17:42:56;102455.16;;;-0.75;59.55
58761;BME280;44529;47.464;19.014;2023-02-07T17:46:00;102452.84;;;-0.78;59.51
58761;BME280;44529;47.464;19.014;2023-02-07T17:49:11;102443.69;;;-0.90;60.39
58761;BME280;44529;47.464;19.014;2023-02-07T17:52:16;102450.28;;;-0.86;60.62
58761;BME280;44529;47.464;19.014;2023-02-07T17:55:19;102449.31;;;-0.70;60.38
58761;BME280;44529;47.464;19.014;2023-02-07T17:58:22;102454.97;;;-0.73;59.43
58761;BME280;44529;47.464;19.014;2023-02-07T18:01:26;102449.22;;;-0.77;59.70
58761;BME280;44529;47.464;19.014;2023-02-07T18:04:29;102453.44;;;-0.83;60.53
58761;BME280;44529;47.464;19.014;2023-02-07T18:07:31;102450.41;;;-0.79;59.63
58761;BME280;44529;47.464;19.014;2023-02-07T18:10:34;102457.34;;;-0.78;59.81
58761;BME280;44529;47.464;19.014;2023-02-07T18:13:45;102463.47;;;-0.78;60.16
58761;BME280;44529;47.464;19.014;2023-02-07T18:16:50;102457.72;;;-0.82;60.03